ADDS METAR Data INFO
IDs: Format: Raw Decoded Include TAF

Data at: 1150 UTC 23 Jun 2018

KSPR 231135Z AUTO 22008KT 10SM FEW017 SCT022 BKN041 28/24 A2993 RMK A01
KSPR 231115Z AUTO 22011KT 10SM SCT018 SCT024 SCT031 28/25 A2992 RMK A01
KSPR 231055Z AUTO 21016KT 10SM CLR 28/24 A2992 RMK A01
KSPR 231035Z AUTO 22013G19KT 10SM FEW018 FEW023 SCT027 28/24 A2991 RMK A01
KSPR 231015Z AUTO 22010G18KT 10SM BKN018 BKN027 28/25 A2991 RMK A01
KSPR 230955Z AUTO 21015G22KT 10SM SCT018 28/24 A2990 RMK A01
KSPR 230935Z AUTO 21016G23KT 10SM FEW018 28/24 A2990 RMK A01
KSPR 230915Z AUTO 20022KT 10SM CLR 28/24 A2990 RMK A01
KSPR 230855Z AUTO 20022KT 10SM CLR 28/24 A2990 RMK A01
KSPR 230835Z AUTO 20021KT 10SM FEW017 FEW047 FEW065 28/24 A2990 RMK A01
KSPR 230815Z AUTO 20020KT 10SM SCT017 SCT040 SCT065 28/25 A2990 RMK A01
KSPR 230755Z AUTO 21019KT 10SM SCT017 SCT040 SCT080 28/25 A2990 RMK A01
KSPR 230735Z AUTO 20021KT 10SM FEW019 28/24 A2991 RMK A01
KSPR 230715Z AUTO 21020KT 10SM FEW019 FEW037 28/24 A2991 RMK A01
KSPR 230655Z AUTO 21021KT 10SM FEW020 FEW036 SCT044 28/24 A2990 RMK A01
KSPR 230635Z AUTO 21019KT 10SM FEW015 SCT020 SCT034 28/25 A2991 RMK A01
KSPR 230615Z AUTO 19017KT 10SM FEW015 28/25 A2992 RMK A01
KSPR 230555Z AUTO 20018KT 10SM FEW015 FEW020 SCT060 28/25 A2991 RMK A01
KSPR 230535Z AUTO 20015KT 10SM SCT016 SCT020 BKN036 28/25 A2992 RMK A01
KSPR 230515Z AUTO 20014KT 10SM SCT016 SCT020 BKN034 28/25 A2992 RMK A01
KSPR 230455Z AUTO 20015KT 10SM BKN018 SCT028 BKN036 28/25 A2992 RMK A01
KSPR 230435Z AUTO 20013KT 10SM SCT017 BKN028 BKN037 28/24 A2992 RMK A01
KSPR 230415Z AUTO 21011KT 10SM SCT017 28/24 A2991 RMK A01
KSPR 230355Z AUTO 20014KT 10SM SCT017 28/24 A2991 RMK A01
KSPR 230335Z AUTO 22009KT 10SM SCT017 28/24 A2991 RMK A01
KSPR 230315Z AUTO 21013KT 10SM FEW017 FEW065 28/24 A2991 RMK A01
KSPR 230255Z AUTO 20014KT 10SM FEW018 FEW065 28/24 A2990 RMK A01
KSPR 230235Z AUTO 21011KT 10SM FEW018 FEW060 28/24 A2990 RMK A01
KSPR 230215Z AUTO 21010KT 10SM SCT019 SCT032 28/24 A2990 RMK A01
KSPR 230155Z AUTO 21011KT 10SM FEW019 28/24 A2990 RMK A01
KSPR 230135Z AUTO 22007KT 10SM FEW020 28/24 A2989 RMK A01
KSPR 230115Z AUTO 24009KT 10SM FEW019 SCT025 28/23 A2990 RMK A01
KSPR 230055Z AUTO 24008KT 10SM BKN021 BKN026 28/24 A2990 RMK A01
KSPR 230035Z AUTO 23006KT 10SM SCT020 28/24 A2990 RMK A01
KSPR 230015Z AUTO 23007G12KT 10SM FEW019 28/24 A2989 RMK A01
KSPR 222355Z AUTO 22007G12KT 10SM FEW019 FEW034 28/24 A2989 RMK A01
KSPR 222335Z AUTO 22007G15KT 10SM SCT019 SCT024 SCT034 28/24 A2989 RMK A01
KSPR 222315Z AUTO 23007KT 10SM FEW020 SCT025 SCT034 28/24 A2990 RMK A01
KSPR 222255Z AUTO 23006KT 10SM FEW020 SCT025 SCT029 28/24 A2990 RMK A01
KSPR 222235Z AUTO 22007KT 10SM BKN020 BKN028 BKN034 28/24 A2991 RMK A01
KSPR 222215Z AUTO 23005KT 10SM BKN020 OVC028 28/24 A2991 RMK A01
KSPR 222155Z AUTO 24007G12KT 10SM SCT022 SCT027 28/24 A2992 RMK A01
KSPR 222135Z AUTO 23006G11KT 10SM CLR 28/24 A2992 RMK A01
KSPR 222115Z AUTO 23005G12KT 10SM FEW022 SCT029 28/24 A2993 RMK A01
KSPR 222055Z AUTO 25011KT 10SM SCT024 28/24 A2993 RMK A01
KSPR 222035Z AUTO 24009KT 10SM FEW022 28/23 A2994 RMK A01
KSPR 222015Z AUTO 24009KT 10SM FEW022 28/23 A2994 RMK A01
KSPR 221955Z AUTO 24009KT 10SM FEW021 28/24 A2995 RMK A01
KSPR 221935Z AUTO 24008KT 10SM FEW022 28/23 A2995 RMK A01
KSPR 221915Z AUTO 24012KT 10SM FEW020 28/23 A2996 RMK A01
KSPR 221855Z AUTO 24009G14KT 10SM FEW021 FEW029 28/23 A2996 RMK A01
KSPR 221835Z AUTO 23008KT 10SM SCT021 SCT029 28/23 A2997 RMK A01
KSPR 221815Z AUTO 24008KT 10SM SCT021 SCT028 28/24 A2997 RMK A01
KSPR 221755Z AUTO 23007KT 10SM FEW021 SCT027 28/23 A2997 RMK A01
KSPR 221735Z AUTO 22008KT 10SM FEW021 SCT026 28/24 A2997 RMK A01
KSPR 221715Z AUTO 22008KT 10SM SCT022 28/24 A2997 RMK A01
KSPR 221655Z AUTO 22008KT 10SM FEW021 28/23 A2997 RMK A01
KSPR 221635Z AUTO 23007KT 10SM FEW020 28/23 A2997 RMK A01
KSPR 221615Z AUTO 22008KT 10SM FEW020 28/24 A2997 RMK A01
KSPR 221555Z AUTO 23007KT 10SM FEW020 28/23 A2997 RMK A01
KSPR 221535Z AUTO 22007G12KT 10SM SCT021 28/23 A2997 RMK A01
KSPR 221515Z AUTO 23007KT 10SM SCT019 SCT024 28/24 A2996 RMK A01
KSPR 221455Z AUTO 22008KT 10SM FEW021 28/24 A2996 RMK A01
KSPR 221435Z AUTO 23007KT FEW020 28/23 A2996 RMK A01
KSPR 221415Z AUTO 22008KT 10SM FEW020 28/24 A2996 RMK A01
KSPR 221355Z AUTO 22008KT 10SM CLR 28/24 A2996 RMK A01
KSPR 221335Z AUTO 23006KT 9SM FEW019 28/24 A2996 RMK A01
KSPR 221315Z AUTO 23007KT 10SM SCT018 28/24 A2996 RMK A01
KSPR 221255Z AUTO 23006KT 10SM SCT018 27/24 A2995 RMK A01
KSPR 221235Z AUTO 23006KT 10SM SCT018 27/24 A2995 RMK A01
KSPR 221215Z AUTO 23007KT 10SM FEW018 27/24 A2995 RMK A01
KSPR 221155Z AUTO 23007KT 10SM FEW018 27/24 A2994 RMK A01
KSPR 221135Z AUTO 24006KT 10SM FEW017 27/24 A2994 RMK A01
KSPR 221115Z AUTO 23006KT 10SM FEW017 27/24 A2993 RMK A01
KSPR 221055Z AUTO 24008KT 9SM FEW017 FEW060 27/24 A2993 RMK A01
KSPR 221035Z AUTO 24009KT 10SM FEW017 FEW028 FEW060 27/24 A2992 RMK A01
KSPR 221015Z AUTO 25011KT 10SM FEW017 FEW055 27/24 A2992 RMK A01
KSPR 220955Z AUTO 25012KT 9SM FEW016 FEW027 SCT055 27/24 A2992 RMK A01
KSPR 220935Z AUTO 25012KT 9SM SCT016 SCT029 SCT050 27/24 A2992 RMK A01
KSPR 220915Z AUTO 23006G11KT 9SM FEW017 FEW029 28/24 A2992 RMK A01
KSPR 220855Z AUTO 24008KT 9SM FEW016 FEW021 FEW029 28/24 A2992 RMK A01
KSPR 220835Z AUTO 23006G12KT 9SM FEW015 FEW026 SCT045 28/24 A2992 RMK A01
KSPR 220815Z AUTO 21010KT 9SM BKN015 BKN023 BKN029 27/25 A2992 RMK A01
KSPR 220755Z AUTO 22006G12KT 9SM FEW015 FEW029 FEW041 28/24 A2992 RMK A01
KSPR 220735Z AUTO 22007KT 9SM CLR 28/24 A2992 RMK A01
KSPR 220715Z AUTO 22007KT 9SM FEW017 FEW030 FEW039 28/24 A2992 RMK A01
KSPR 220655Z AUTO 21011KT 9SM FEW016 SCT040 28/24 A2992 RMK A01
KSPR 220635Z AUTO 20012KT 9SM FEW016 FEW021 FEW028 28/24 A2992 RMK A01
KSPR 220615Z AUTO 21010KT 9SM FEW016 SCT027 BKN040 28/24 A2993 RMK A01
KSPR 220555Z AUTO 20011KT 9SM CLR 28/24 A2993 RMK A01
KSPR 220535Z AUTO 21009KT 9SM FEW017 FEW021 SCT028 28/25 A2994 RMK A01
KSPR 220515Z AUTO 22005KT 9SM FEW016 FEW026 FEW060 28/24 A2994 RMK A01
KSPR 220455Z AUTO 21008KT 9SM CLR 28/25 A2994 RMK A01
KSPR 220435Z AUTO 20010KT 9SM CLR 28/24 A2994 RMK A01
KSPR 220415Z AUTO 21009KT 9SM CLR 28/24 A2994 RMK A01
KSPR 220355Z AUTO 20011KT 9SM CLR 28/24 A2993 RMK A01
KSPR 220335Z AUTO 20011KT 9SM CLR 28/24 A2993 RMK A01
KSPR 220315Z AUTO 20010KT 9SM FEW018 FEW024 28/24 A2993 RMK A01
KSPR 220255Z AUTO 19008KT 9SM FEW017 FEW024 SCT042 28/24 A2994 RMK A01
KSPR 220235Z AUTO 20009KT 9SM FEW017 FEW023 SCT042 28/24 A2993 RMK A01
KSPR 220215Z AUTO 20009KT 9SM SCT017 SCT024 BKN032 28/24 A2993 RMK A01
KSPR 220155Z AUTO 20009KT 9SM SCT018 BKN022 BKN026 28/24 A2993 RMK A01
KSPR 220135Z AUTO 20008KT 9SM BKN020 BKN025 28/24 A2992 RMK A01
KSPR 220115Z AUTO 20007KT 9SM SCT019 BKN026 28/24 A2992 RMK A01
KSPR 220055Z AUTO 21006KT 9SM SCT019 28/24 A2992 RMK A01
KSPR 220035Z AUTO 20006KT 9SM CLR 28/24 A2992 RMK A01
KSPR 220010Z AUTO 23003KT 9SM CLR 28/23 A2991 RMK A01
KSPR 212355Z AUTO 22005KT 10SM CLR 28/24 A2991 RMK A01